sensor_id;sensor_type;location;lat;lon;timestamp;P1;durP1;ratioP1;P2;durP2;ratioP2
36383;SDS011;22418;51.210;6.976;2023-09-19T00:00:34;16.25;;;2.75;;
36383;SDS011;22418;51.210;6.976;2023-09-19T00:03:05;15.18;;;3.00;;
36383;SDS011;22418;51.210;6.976;2023-09-19T00:05:36;9.83;;;2.93;;
36383;SDS011;22418;51.210;6.976;2023-09-19T00:08:14;9.95;;;2.58;;
36383;SDS011;22418;51.210;6.976;2023-09-19T00:10:45;7.03;;;1.98;;
36383;SDS011;22418;51.210;6.976;2023-09-19T00:13:15;15.87;;;3.27;;
36383;SDS011;22418;51.210;6.976;2023-09-19T00:15:46;14.60;;;3.17;;
36383;SDS011;22418;51.210;6.976;2023-09-19T00:18:21;13.70;;;2.83;;
36383;SDS011;22418;51.210;6.976;2023-09-19T00:20:51;11.23;;;2.58;;
36383;SDS011;22418;51.210;6.976;2023-09-19T00:23:23;10.32;;;2.50;;
36383;SDS011;22418;51.210;6.976;2023-09-19T00:28:28;15.52;;;2.63;;
36383;SDS011;22418;51.210;6.976;2023-09-19T00:30:59;12.95;;;3.42;;
36383;SDS011;22418;51.210;6.976;2023-09-19T00:33:31;10.93;;;2.55;;
36383;SDS011;22418;51.210;6.976;2023-09-19T00:36:02;14.90;;;2.53;;
36383;SDS011;22418;51.210;6.976;2023-09-19T00:38:35;13.98;;;2.53;;
36383;SDS011;22418;51.210;6.976;2023-09-19T00:41:06;19.77;;;2.70;;
36383;SDS011;22418;51.210;6.976;2023-09-19T00:43:37;13.30;;;2.67;;
36383;SDS011;22418;51.210;6.976;2023-09-19T00:46:07;13.20;;;2.47;;
36383;SDS011;22418;51.210;6.976;2023-09-19T00:48:40;8.10;;;2.53;;
36383;SDS011;22418;51.210;6.976;2023-09-19T00:51:14;13.52;;;2.45;;
36383;SDS011;22418;51.210;6.976;2023-09-19T00:53:48;17.63;;;2.47;;
36383;SDS011;22418;51.210;6.976;2023-09-19T00:56:19;13.68;;;3.08;;
36383;SDS011;22418;51.210;6.976;2023-09-19T00:58:50;14.15;;;2.95;;
36383;SDS011;22418;51.210;6.976;2023-09-19T01:01:21;13.57;;;2.50;;
36383;SDS011;22418;51.210;6.976;2023-09-19T01:03:55;14.55;;;3.25;;
36383;SDS011;22418;51.210;6.976;2023-09-19T01:06:25;16.38;;;2.75;;
36383;SDS011;22418;51.210;6.976;2023-09-19T01:08:56;17.40;;;3.58;;
36383;SDS011;22418;51.210;6.976;2023-09-19T01:11:31;9.70;;;2.53;;
36383;SDS011;22418;51.210;6.976;2023-09-19T01:17:16;16.65;;;2.45;;
36383;SDS011;22418;51.210;6.976;2023-09-19T01:28:30;15.35;;;2.85;;
36383;SDS011;22418;51.210;6.976;2023-09-19T01:31:09;12.50;;;2.83;;
36383;SDS011;22418;51.210;6.976;2023-09-19T01:33:58;11.32;;;3.10;;
36383;SDS011;22418;51.210;6.976;2023-09-19T01:36:35;12.52;;;2.65;;
36383;SDS011;22418;51.210;6.976;2023-09-19T01:39:10;14.32;;;2.70;;
36383;SDS011;22418;51.210;6.976;2023-09-19T01:42:05;13.00;;;3.10;;
36383;SDS011;22418;51.210;6.976;2023-09-19T01:44:55;13.20;;;2.80;;
36383;SDS011;22418;51.210;6.976;2023-09-19T01:47:37;15.95;;;2.88;;
36383;SDS011;22418;51.210;6.976;2023-09-19T01:53:05;15.80;;;3.20;;
36383;SDS011;22418;51.210;6.976;2023-09-19T01:58:37;17.48;;;3.40;;
36383;SDS011;22418;51.210;6.976;2023-09-19T02:01:09;15.40;;;3.17;;
36383;SDS011;22418;51.210;6.976;2023-09-19T02:03:46;15.38;;;2.97;;
36383;SDS011;22418;51.210;6.976;2023-09-19T02:06:19;16.23;;;3.20;;
36383;SDS011;22418;51.210;6.976;2023-09-19T02:08:51;9.93;;;2.78;;
36383;SDS011;22418;51.210;6.976;2023-09-19T02:11:21;13.43;;;3.00;;
36383;SDS011;22418;51.210;6.976;2023-09-19T02:13:52;16.87;;;2.60;;
36383;SDS011;22418;51.210;6.976;2023-09-19T02:16:27;15.70;;;3.03;;
36383;SDS011;22418;51.210;6.976;2023-09-19T02:18:58;15.57;;;2.80;;
36383;SDS011;22418;51.210;6.976;2023-09-19T02:21:30;18.42;;;3.97;;
36383;SDS011;22418;51.210;6.976;2023-09-19T02:24:00;12.20;;;3.00;;
36383;SDS011;22418;51.210;6.976;2023-09-19T02:26:32;14.63;;;2.75;;
36383;SDS011;22418;51.210;6.976;2023-09-19T02:29:05;11.73;;;3.22;;
36383;SDS011;22418;51.210;6.976;2023-09-19T02:31:36;10.13;;;2.73;;
36383;SDS011;22418;51.210;6.976;2023-09-19T02:34:07;15.82;;;3.20;;
36383;SDS011;22418;51.210;6.976;2023-09-19T02:36:38;11.88;;;2.95;;
36383;SDS011;22418;51.210;6.976;2023-09-19T02:39:09;15.90;;;3.27;;
36383;SDS011;22418;51.210;6.976;2023-09-19T02:41:41;26.95;;;3.90;;
36383;SDS011;22418;51.210;6.976;2023-09-19T02:44:11;14.47;;;2.73;;
36383;SDS011;22418;51.210;6.976;2023-09-19T02:46:42;14.37;;;2.93;;
36383;SDS011;22418;51.210;6.976;2023-09-19T02:49:13;14.95;;;2.85;;
36383;SDS011;22418;51.210;6.976;2023-09-19T02:51:44;21.63;;;2.92;;
36383;SDS011;22418;51.210;6.976;2023-09-19T02:54:15;13.57;;;2.45;;
36383;SDS011;22418;51.210;6.976;2023-09-19T02:56:47;13.30;;;3.88;;
36383;SDS011;22418;51.210;6.976;2023-09-19T02:59:18;11.53;;;2.60;;
36383;SDS011;22418;51.210;6.976;2023-09-19T03:01:49;19.10;;;2.72;;
36383;SDS011;22418;51.210;6.976;2023-09-19T03:04:20;33.50;;;3.93;;
36383;SDS011;22418;51.210;6.976;2023-09-19T03:06:50;14.50;;;3.67;;
36383;SDS011;22418;51.210;6.976;2023-09-19T03:09:22;20.63;;;3.13;;
36383;SDS011;22418;51.210;6.976;2023-09-19T03:11:53;12.77;;;2.47;;
36383;SDS011;22418;51.210;6.976;2023-09-19T03:14:24;17.85;;;2.67;;
36383;SDS011;22418;51.210;6.976;2023-09-19T03:16:55;18.67;;;3.90;;
36383;SDS011;22418;51.210;6.976;2023-09-19T03:19:29;15.80;;;3.78;;
36383;SDS011;22418;51.210;6.976;2023-09-19T03:22:00;12.88;;;2.47;;
36383;SDS011;22418;51.210;6.976;2023-09-19T03:24:32;12.38;;;2.42;;
36383;SDS011;22418;51.210;6.976;2023-09-19T03:27:06;14.05;;;4.25;;
36383;SDS011;22418;51.210;6.976;2023-09-19T03:29:40;13.63;;;2.80;;
36383;SDS011;22418;51.210;6.976;2023-09-19T03:32:10;18.13;;;2.60;;
36383;SDS011;22418;51.210;6.976;2023-09-19T03:34:41;18.30;;;3.10;;
36383;SDS011;22418;51.210;6.976;2023-09-19T03:37:13;20.30;;;3.67;;
36383;SDS011;22418;51.210;6.976;2023-09-19T03:39:43;17.87;;;2.63;;
36383;SDS011;22418;51.210;6.976;2023-09-19T03:42:14;12.73;;;2.50;;
36383;SDS011;22418;51.210;6.976;2023-09-19T03:44:45;14.63;;;2.30;;
36383;SDS011;22418;51.210;6.976;2023-09-19T03:47:15;11.63;;;3.10;;
36383;SDS011;22418;51.210;6.976;2023-09-19T03:49:46;11.32;;;3.10;;
36383;SDS011;22418;51.210;6.976;2023-09-19T03:52:17;15.67;;;2.20;;
36383;SDS011;22418;51.210;6.976;2023-09-19T03:54:47;17.47;;;3.27;;
36383;SDS011;22418;51.210;6.976;2023-09-19T03:57:18;11.35;;;2.55;;
36383;SDS011;22418;51.210;6.976;2023-09-19T03:59:50;16.48;;;2.60;;
36383;SDS011;22418;51.210;6.976;2023-09-19T04:02:23;15.00;;;3.10;;
36383;SDS011;22418;51.210;6.976;2023-09-19T04:04:54;15.63;;;2.42;;
36383;SDS011;22418;51.210;6.976;2023-09-19T04:07:25;15.47;;;3.70;;
36383;SDS011;22418;51.210;6.976;2023-09-19T04:09:58;18.60;;;3.05;;
36383;SDS011;22418;51.210;6.976;2023-09-19T04:12:29;17.70;;;2.73;;
36383;SDS011;22418;51.210;6.976;2023-09-19T04:15:00;16.70;;;3.63;;
36383;SDS011;22418;51.210;6.976;2023-09-19T04:17:30;11.97;;;2.73;;
36383;SDS011;22418;51.210;6.976;2023-09-19T04:20:03;10.48;;;2.38;;
36383;SDS011;22418;51.210;6.976;2023-09-19T04:22:37;21.70;;;3.08;;
36383;SDS011;22418;51.210;6.976;2023-09-19T04:25:08;19.42;;;3.10;;
36383;SDS011;22418;51.210;6.976;2023-09-19T04:27:39;10.87;;;2.70;;
36383;SDS011;22418;51.210;6.976;2023-09-19T04:30:11;13.65;;;2.95;;
36383;SDS011;22418;51.210;6.976;2023-09-19T04:32:42;12.00;;;2.33;;
36383;SDS011;22418;51.210;6.976;2023-09-19T04:35:13;10.17;;;2.50;;
36383;SDS011;22418;51.210;6.976;2023-09-19T04:37:44;16.33;;;3.22;;
36383;SDS011;22418;51.210;6.976;2023-09-19T04:40:15;23.30;;;4.07;;
36383;SDS011;22418;51.210;6.976;2023-09-19T04:42:53;10.30;;;2.53;;
36383;SDS011;22418;51.210;6.976;2023-09-19T04:45:27;18.27;;;3.78;;
36383;SDS011;22418;51.210;6.976;2023-09-19T04:47:59;12.20;;;3.33;;
36383;SDS011;22418;51.210;6.976;2023-09-19T04:50:29;18.97;;;3.47;;
36383;SDS011;22418;51.210;6.976;2023-09-19T04:53:00;22.70;;;3.63;;
36383;SDS011;22418;51.210;6.976;2023-09-19T04:55:31;16.27;;;2.60;;
36383;SDS011;22418;51.210;6.976;2023-09-19T04:58:02;14.43;;;2.70;;
36383;SDS011;22418;51.210;6.976;2023-09-19T05:00:34;20.80;;;2.80;;
36383;SDS011;22418;51.210;6.976;2023-09-19T05:03:05;13.80;;;2.95;;
36383;SDS011;22418;51.210;6.976;2023-09-19T05:05:36;13.20;;;2.67;;
36383;SDS011;22418;51.210;6.976;2023-09-19T05:08:08;20.63;;;3.22;;
36383;SDS011;22418;51.210;6.976;2023-09-19T05:10:39;10.52;;;2.45;;
36383;SDS011;22418;51.210;6.976;2023-09-19T05:13:10;13.95;;;2.70;;
36383;SDS011;22418;51.210;6.976;2023-09-19T05:15:42;15.82;;;2.90;;
36383;SDS011;22418;51.210;6.976;2023-09-19T05:18:12;17.73;;;2.50;;
36383;SDS011;22418;51.210;6.976;2023-09-19T05:20:43;11.93;;;2.83;;
36383;SDS011;22418;51.210;6.976;2023-09-19T05:23:13;20.40;;;3.10;;
36383;SDS011;22418;51.210;6.976;2023-09-19T05:25:44;13.03;;;2.87;;
36383;SDS011;22418;51.210;6.976;2023-09-19T05:28:15;21.70;;;3.42;;
36383;SDS011;22418;51.210;6.976;2023-09-19T05:30:45;17.70;;;3.37;;
36383;SDS011;22418;51.210;6.976;2023-09-19T05:33:17;16.25;;;2.55;;
36383;SDS011;22418;51.210;6.976;2023-09-19T05:35:48;16.95;;;3.33;;
36383;SDS011;22418;51.210;6.976;2023-09-19T05:38:19;16.33;;;3.80;;
36383;SDS011;22418;51.210;6.976;2023-09-19T05:40:50;21.95;;;2.88;;
36383;SDS011;22418;51.210;6.976;2023-09-19T05:43:20;9.73;;;2.33;;
36383;SDS011;22418;51.210;6.976;2023-09-19T05:45:51;16.38;;;3.65;;
36383;SDS011;22418;51.210;6.976;2023-09-19T05:48:22;12.03;;;2.30;;
36383;SDS011;22418;51.210;6.976;2023-09-19T05:50:52;17.77;;;3.77;;
36383;SDS011;22418;51.210;6.976;2023-09-19T05:53:23;15.43;;;3.13;;
36383;SDS011;22418;51.210;6.976;2023-09-19T05:55:53;18.87;;;2.77;;
36383;SDS011;22418;51.210;6.976;2023-09-19T05:58:25;18.23;;;3.47;;
36383;SDS011;22418;51.210;6.976;2023-09-19T06:00:56;20.03;;;2.77;;
36383;SDS011;22418;51.210;6.976;2023-09-19T06:03:27;13.57;;;2.95;;
36383;SDS011;22418;51.210;6.976;2023-09-19T06:06:01;22.80;;;3.10;;
36383;SDS011;22418;51.210;6.976;2023-09-19T06:08:32;16.60;;;3.60;;
36383;SDS011;22418;51.210;6.976;2023-09-19T06:11:03;13.82;;;2.88;;
36383;SDS011;22418;51.210;6.976;2023-09-19T06:13:39;16.20;;;2.70;;
36383;SDS011;22418;51.210;6.976;2023-09-19T06:16:13;17.80;;;3.17;;
36383;SDS011;22418;51.210;6.976;2023-09-19T06:18:44;22.95;;;4.38;;
36383;SDS011;22418;51.210;6.976;2023-09-19T06:21:15;16.35;;;2.85;;
36383;SDS011;22418;51.210;6.976;2023-09-19T06:23:45;19.67;;;3.37;;
36383;SDS011;22418;51.210;6.976;2023-09-19T06:26:16;21.33;;;3.10;;
36383;SDS011;22418;51.210;6.976;2023-09-19T06:28:47;14.93;;;3.28;;
36383;SDS011;22418;51.210;6.976;2023-09-19T06:31:18;21.00;;;3.57;;
36383;SDS011;22418;51.210;6.976;2023-09-19T06:33:48;13.87;;;2.73;;
36383;SDS011;22418;51.210;6.976;2023-09-19T06:36:19;10.90;;;2.90;;
36383;SDS011;22418;51.210;6.976;2023-09-19T06:38:50;16.90;;;2.88;;
36383;SDS011;22418;51.210;6.976;2023-09-19T06:41:23;15.80;;;3.25;;
36383;SDS011;22418;51.210;6.976;2023-09-19T06:43:54;19.60;;;3.67;;
36383;SDS011;22418;51.210;6.976;2023-09-19T06:46:25;15.37;;;2.93;;
36383;SDS011;22418;51.210;6.976;2023-09-19T06:48:56;16.13;;;3.20;;
36383;SDS011;22418;51.210;6.976;2023-09-19T06:51:26;17.63;;;3.60;;
36383;SDS011;22418;51.210;6.976;2023-09-19T06:53:57;18.13;;;3.23;;
36383;SDS011;22418;51.210;6.976;2023-09-19T06:56:28;16.58;;;2.90;;
36383;SDS011;22418;51.210;6.976;2023-09-19T06:58:59;12.93;;;2.83;;
36383;SDS011;22418;51.210;6.976;2023-09-19T07:01:29;11.90;;;2.90;;
36383;SDS011;22418;51.210;6.976;2023-09-19T07:04:01;19.98;;;3.20;;
36383;SDS011;22418;51.210;6.976;2023-09-19T07:06:32;15.87;;;3.43;;
36383;SDS011;22418;51.210;6.976;2023-09-19T07:09:03;15.52;;;2.90;;
36383;SDS011;22418;51.210;6.976;2023-09-19T07:11:34;18.27;;;3.25;;
36383;SDS011;22418;51.210;6.976;2023-09-19T07:14:04;14.20;;;3.07;;
36383;SDS011;22418;51.210;6.976;2023-09-19T07:16:35;18.60;;;3.73;;
36383;SDS011;22418;51.210;6.976;2023-09-19T07:19:07;19.50;;;3.22;;
36383;SDS011;22418;51.210;6.976;2023-09-19T07:21:37;16.20;;;3.17;;
36383;SDS011;22418;51.210;6.976;2023-09-19T07:24:10;13.73;;;2.90;;
36383;SDS011;22418;51.210;6.976;2023-09-19T07:26:41;18.30;;;3.63;;
36383;SDS011;22418;51.210;6.976;2023-09-19T07:29:12;20.63;;;3.40;;
36383;SDS011;22418;51.210;6.976;2023-09-19T07:31:42;14.47;;;3.50;;
36383;SDS011;22418;51.210;6.976;2023-09-19T07:34:17;19.98;;;3.67;;
36383;SDS011;22418;51.210;6.976;2023-09-19T07:36:48;16.05;;;3.47;;
36383;SDS011;22418;51.210;6.976;2023-09-19T07:39:21;16.40;;;4.27;;
36383;SDS011;22418;51.210;6.976;2023-09-19T07:41:52;15.55;;;3.30;;
36383;SDS011;22418;51.210;6.976;2023-09-19T07:44:24;9.50;;;2.47;;
36383;SDS011;22418;51.210;6.976;2023-09-19T07:46:55;19.20;;;3.35;;
36383;SDS011;22418;51.210;6.976;2023-09-19T07:49:26;11.80;;;3.00;;
36383;SDS011;22418;51.210;6.976;2023-09-19T07:51:57;9.20;;;2.70;;
36383;SDS011;22418;51.210;6.976;2023-09-19T07:54:29;12.90;;;2.90;;
36383;SDS011;22418;51.210;6.976;2023-09-19T07:57:05;15.27;;;3.35;;
36383;SDS011;22418;51.210;6.976;2023-09-19T07:59:36;13.00;;;3.07;;
36383;SDS011;22418;51.210;6.976;2023-09-19T08:02:08;17.23;;;2.83;;
36383;SDS011;22418;51.210;6.976;2023-09-19T08:04:45;17.38;;;3.22;;
36383;SDS011;22418;51.210;6.976;2023-09-19T08:07:16;14.07;;;2.90;;
36383;SDS011;22418;51.210;6.976;2023-09-19T08:09:46;14.33;;;2.83;;
36383;SDS011;22418;51.210;6.976;2023-09-19T08:12:18;12.60;;;2.50;;
36383;SDS011;22418;51.210;6.976;2023-09-19T08:14:54;15.55;;;3.28;;
36383;SDS011;22418;51.210;6.976;2023-09-19T08:17:25;11.05;;;2.92;;
36383;SDS011;22418;51.210;6.976;2023-09-19T08:19:55;14.47;;;3.33;;
36383;SDS011;22418;51.210;6.976;2023-09-19T08:22:26;15.43;;;3.13;;
36383;SDS011;22418;51.210;6.976;2023-09-19T08:24:57;15.05;;;2.70;;
36383;SDS011;22418;51.210;6.976;2023-09-19T08:27:28;18.15;;;2.95;;
36383;SDS011;22418;51.210;6.976;2023-09-19T08:29:58;16.77;;;2.77;;
36383;SDS011;22418;51.210;6.976;2023-09-19T08:32:32;16.83;;;3.30;;
36383;SDS011;22418;51.210;6.976;2023-09-19T08:35:03;13.32;;;2.95;;
36383;SDS011;22418;51.210;6.976;2023-09-19T08:37:34;18.13;;;4.25;;
36383;SDS011;22418;51.210;6.976;2023-09-19T08:40:04;12.80;;;2.53;;
36383;SDS011;22418;51.210;6.976;2023-09-19T08:42:49;14.60;;;2.85;;
36383;SDS011;22418;51.210;6.976;2023-09-19T08:45:24;12.15;;;2.33;;
36383;SDS011;22418;51.210;6.976;2023-09-19T08:50:59;12.68;;;3.20;;
36383;SDS011;22418;51.210;6.976;2023-09-19T08:53:50;12.07;;;3.03;;
36383;SDS011;22418;51.210;6.976;2023-09-19T08:56:24;21.42;;;2.90;;
36383;SDS011;22418;51.210;6.976;2023-09-19T08:58:59;16.27;;;2.92;;
36383;SDS011;22418;51.210;6.976;2023-09-19T09:01:35;16.27;;;2.67;;
36383;SDS011;22418;51.210;6.976;2023-09-19T09:04:06;14.82;;;3.92;;
36383;SDS011;22418;51.210;6.976;2023-09-19T09:06:43;14.18;;;2.67;;
36383;SDS011;22418;51.210;6.976;2023-09-19T09:09:15;14.95;;;2.42;;
36383;SDS011;22418;51.210;6.976;2023-09-19T09:11:45;16.50;;;3.55;;
36383;SDS011;22418;51.210;6.976;2023-09-19T09:14:20;13.98;;;2.83;;
36383;SDS011;22418;51.210;6.976;2023-09-19T09:16:51;16.17;;;2.72;;
36383;SDS011;22418;51.210;6.976;2023-09-19T09:19:26;10.98;;;3.03;;
36383;SDS011;22418;51.210;6.976;2023-09-19T09:22:09;9.93;;;2.10;;
36383;SDS011;22418;51.210;6.976;2023-09-19T09:24:53;14.18;;;3.08;;
36383;SDS011;22418;51.210;6.976;2023-09-19T09:27:28;15.38;;;2.95;;
36383;SDS011;22418;51.210;6.976;2023-09-19T09:29:58;14.03;;;2.60;;
36383;SDS011;22418;51.210;6.976;2023-09-19T09:32:30;12.15;;;2.60;;
36383;SDS011;22418;51.210;6.976;2023-09-19T09:35:07;9.93;;;2.40;;
36383;SDS011;22418;51.210;6.976;2023-09-19T09:37:45;19.30;;;3.17;;
36383;SDS011;22418;51.210;6.976;2023-09-19T09:40:17;14.73;;;3.08;;
36383;SDS011;22418;51.210;6.976;2023-09-19T09:42:49;12.80;;;2.58;;
36383;SDS011;22418;51.210;6.976;2023-09-19T09:45:28;11.38;;;2.45;;
36383;SDS011;22418;51.210;6.976;2023-09-19T09:48:07;13.57;;;2.75;;
36383;SDS011;22418;51.210;6.976;2023-09-19T09:50:47;14.20;;;2.88;;
36383;SDS011;22418;51.210;6.976;2023-09-19T09:53:28;11.10;;;2.35;;
36383;SDS011;22418;51.210;6.976;2023-09-19T09:56:03;13.57;;;2.78;;
36383;SDS011;22418;51.210;6.976;2023-09-19T09:58:49;11.50;;;3.15;;
36383;SDS011;22418;51.210;6.976;2023-09-19T10:01:26;10.65;;;2.30;;
36383;SDS011;22418;51.210;6.976;2023-09-19T10:04:01;13.18;;;2.80;;
36383;SDS011;22418;51.210;6.976;2023-09-19T10:06:40;12.80;;;2.77;;
36383;SDS011;22418;51.210;6.976;2023-09-19T10:09:16;9.18;;;2.22;;
36383;SDS011;22418;51.210;6.976;2023-09-19T10:12:03;10.60;;;3.08;;
36383;SDS011;22418;51.210;6.976;2023-09-19T10:14:38;12.82;;;3.10;;
36383;SDS011;22418;51.210;6.976;2023-09-19T10:17:13;9.55;;;2.38;;
36383;SDS011;22418;51.210;6.976;2023-09-19T10:19:56;9.70;;;2.45;;
36383;SDS011;22418;51.210;6.976;2023-09-19T10:22:35;13.48;;;3.17;;
36383;SDS011;22418;51.210;6.976;2023-09-19T10:25:06;8.70;;;2.53;;
36383;SDS011;22418;51.210;6.976;2023-09-19T10:27:39;9.45;;;2.72;;
36383;SDS011;22418;51.210;6.976;2023-09-19T10:30:13;9.90;;;2.45;;
36383;SDS011;22418;51.210;6.976;2023-09-19T10:32:46;18.92;;;3.20;;
36383;SDS011;22418;51.210;6.976;2023-09-19T10:35:20;14.02;;;2.58;;
36383;SDS011;22418;51.210;6.976;2023-09-19T10:37:51;12.57;;;3.00;;
36383;SDS011;22418;51.210;6.976;2023-09-19T10:40:27;14.10;;;2.83;;
36383;SDS011;22418;51.210;6.976;2023-09-19T10:43:02;17.80;;;2.95;;
36383;SDS011;22418;51.210;6.976;2023-09-19T10:45:35;10.80;;;2.53;;
36383;SDS011;22418;51.210;6.976;2023-09-19T10:48:08;16.63;;;2.75;;
36383;SDS011;22418;51.210;6.976;2023-09-19T10:50:49;10.63;;;2.90;;
36383;SDS011;22418;51.210;6.976;2023-09-19T10:53:29;9.40;;;2.30;;
36383;SDS011;22418;51.210;6.976;2023-09-19T10:56:18;10.73;;;2.53;;
36383;SDS011;22418;51.210;6.976;2023-09-19T11:01:59;10.50;;;3.00;;
36383;SDS011;22418;51.210;6.976;2023-09-19T11:04:45;12.93;;;2.70;;
36383;SDS011;22418;51.210;6.976;2023-09-19T11:07:18;7.68;;;2.10;;
36383;SDS011;22418;51.210;6.976;2023-09-19T11:09:55;10.10;;;3.00;;
36383;SDS011;22418;51.210;6.976;2023-09-19T11:15:05;12.57;;;2.75;;
36383;SDS011;22418;51.210;6.976;2023-09-19T11:17:42;13.32;;;2.55;;
36383;SDS011;22418;51.210;6.976;2023-09-19T11:20:18;15.32;;;2.90;;
36383;SDS011;22418;51.210;6.976;2023-09-19T11:23:36;9.23;;;2.30;;
36383;SDS011;22418;51.210;6.976;2023-09-19T11:25:48;8.63;;;2.65;;
36383;SDS011;22418;51.210;6.976;2023-09-19T11:30:53;13.02;;;2.20;;
36383;SDS011;22418;51.210;6.976;2023-09-19T11:33:25;11.85;;;2.10;;
36383;SDS011;22418;51.210;6.976;2023-09-19T11:46:30;8.07;;;2.40;;
36383;SDS011;22418;51.210;6.976;2023-09-19T11:49:06;12.88;;;2.65;;
36383;SDS011;22418;51.210;6.976;2023-09-19T11:51:45;10.52;;;2.10;;
36383;SDS011;22418;51.210;6.976;2023-09-19T11:54:17;9.55;;;2.33;;
36383;SDS011;22418;51.210;6.976;2023-09-19T11:56:52;9.60;;;2.45;;
36383;SDS011;22418;51.210;6.976;2023-09-19T11:59:25;9.68;;;2.92;;
36383;SDS011;22418;51.210;6.976;2023-09-19T12:01:59;9.02;;;2.63;;
36383;SDS011;22418;51.210;6.976;2023-09-19T12:04:40;14.60;;;2.95;;
36383;SDS011;22418;51.210;6.976;2023-09-19T12:07:16;15.90;;;2.30;;
36383;SDS011;22418;51.210;6.976;2023-09-19T12:09:50;9.57;;;2.42;;
36383;SDS011;22418;51.210;6.976;2023-09-19T12:12:32;17.38;;;2.58;;
36383;SDS011;22418;51.210;6.976;2023-09-19T12:15:05;9.25;;;2.38;;
36383;SDS011;22418;51.210;6.976;2023-09-19T12:17:37;10.43;;;2.63;;
36383;SDS011;22418;51.210;6.976;2023-09-19T12:20:11;8.80;;;2.30;;
36383;SDS011;22418;51.210;6.976;2023-09-19T12:22:45;9.57;;;2.35;;
36383;SDS011;22418;51.210;6.976;2023-09-19T12:25:17;9.85;;;2.42;;
36383;SDS011;22418;51.210;6.976;2023-09-19T12:27:49;8.98;;;2.28;;
36383;SDS011;22418;51.210;6.976;2023-09-19T12:30:27;8.98;;;3.00;;
36383;SDS011;22418;51.210;6.976;2023-09-19T12:32:58;12.15;;;2.45;;
36383;SDS011;22418;51.210;6.976;2023-09-19T12:35:29;9.85;;;2.08;;
36383;SDS011;22418;51.210;6.976;2023-09-19T12:38:04;13.10;;;2.35;;
36383;SDS011;22418;51.210;6.976;2023-09-19T12:40:36;10.18;;;2.42;;
36383;SDS011;22418;51.210;6.976;2023-09-19T12:43:08;8.45;;;2.42;;
36383;SDS011;22418;51.210;6.976;2023-09-19T12:45:39;10.32;;;2.47;;
36383;SDS011;22418;51.210;6.976;2023-09-19T12:48:19;13.90;;;2.25;;
36383;SDS011;22418;51.210;6.976;2023-09-19T12:51:08;11.48;;;2.80;;
36383;SDS011;22418;51.210;6.976;2023-09-19T12:53:46;10.77;;;2.03;;
36383;SDS011;22418;51.210;6.976;2023-09-19T12:56:27;8.68;;;2.28;;
36383;SDS011;22418;51.210;6.976;2023-09-19T12:58:59;10.27;;;2.22;;
36383;SDS011;22418;51.210;6.976;2023-09-19T13:01:33;10.20;;;2.00;;
36383;SDS011;22418;51.210;6.976;2023-09-19T13:04:16;11.20;;;1.95;;
36383;SDS011;22418;51.210;6.976;2023-09-19T13:06:49;17.38;;;2.30;;
36383;SDS011;22418;51.210;6.976;2023-09-19T13:09:22;10.73;;;1.73;;
36383;SDS011;22418;51.210;6.976;2023-09-19T13:11:58;12.10;;;2.10;;
36383;SDS011;22418;51.210;6.976;2023-09-19T13:14:29;6.03;;;1.88;;
36383;SDS011;22418;51.210;6.976;2023-09-19T13:17:07;6.82;;;2.03;;
36383;SDS011;22418;51.210;6.976;2023-09-19T13:19:51;7.45;;;1.75;;
36383;SDS011;22418;51.210;6.976;2023-09-19T13:22:36;11.18;;;2.03;;
36383;SDS011;22418;51.210;6.976;2023-09-19T13:25:13;5.68;;;1.60;;
36383;SDS011;22418;51.210;6.976;2023-09-19T13:27:48;6.82;;;1.63;;
36383;SDS011;22418;51.210;6.976;2023-09-19T13:30:22;11.25;;;1.50;;
36383;SDS011;22418;51.210;6.976;2023-09-19T13:33:05;7.40;;;1.50;;
36383;SDS011;22418;51.210;6.976;2023-09-19T13:35:40;7.45;;;1.70;;
36383;SDS011;22418;51.210;6.976;2023-09-19T13:38:11;7.90;;;1.73;;
36383;SDS011;22418;51.210;6.976;2023-09-19T13:40:42;8.35;;;1.60;;
36383;SDS011;22418;51.210;6.976;2023-09-19T13:43:13;7.60;;;1.43;;
36383;SDS011;22418;51.210;6.976;2023-09-19T13:45:43;6.53;;;1.50;;
36383;SDS011;22418;51.210;6.976;2023-09-19T13:48:14;4.70;;;1.60;;
36383;SDS011;22418;51.210;6.976;2023-09-19T13:50:44;9.00;;;1.67;;
36383;SDS011;22418;51.210;6.976;2023-09-19T13:53:15;5.83;;;1.43;;
36383;SDS011;22418;51.210;6.976;2023-09-19T13:55:46;10.27;;;1.60;;
36383;SDS011;22418;51.210;6.976;2023-09-19T13:58:18;7.15;;;1.70;;
36383;SDS011;22418;51.210;6.976;2023-09-19T14:00:49;6.40;;;1.57;;
36383;SDS011;22418;51.210;6.976;2023-09-19T14:03:19;6.18;;;1.70;;
36383;SDS011;22418;51.210;6.976;2023-09-19T14:05:51;7.07;;;1.00;;
36383;SDS011;22418;51.210;6.976;2023-09-19T14:08:22;7.07;;;1.90;;
36383;SDS011;22418;51.210;6.976;2023-09-19T14:13:24;4.97;;;1.10;;
36383;SDS011;22418;51.210;6.976;2023-09-19T14:15:55;3.90;;;1.08;;
36383;SDS011;22418;51.210;6.976;2023-09-19T14:18:26;7.07;;;1.43;;
36383;SDS011;22418;51.210;6.976;2023-09-19T14:20:56;8.13;;;1.20;;
36383;SDS011;22418;51.210;6.976;2023-09-19T14:23:27;9.40;;;1.37;;
36383;SDS011;22418;51.210;6.976;2023-09-19T14:26:00;5.53;;;1.30;;
36383;SDS011;22418;51.210;6.976;2023-09-19T14:28:31;5.63;;;1.65;;
36383;SDS011;22418;51.210;6.976;2023-09-19T14:31:10;6.90;;;1.20;;
36383;SDS011;22418;51.210;6.976;2023-09-19T14:33:41;4.03;;;1.30;;
36383;SDS011;22418;51.210;6.976;2023-09-19T14:36:11;6.73;;;1.17;;
36383;SDS011;22418;51.210;6.976;2023-09-19T14:38:43;5.90;;;1.08;;
36383;SDS011;22418;51.210;6.976;2023-09-19T14:41:14;8.23;;;1.63;;
36383;SDS011;22418;51.210;6.976;2023-09-19T14:43:44;8.70;;;1.40;;
36383;SDS011;22418;51.210;6.976;2023-09-19T14:46:15;3.70;;;1.27;;
36383;SDS011;22418;51.210;6.976;2023-09-19T14:48:46;5.53;;;1.42;;
36383;SDS011;22418;51.210;6.976;2023-09-19T14:51:17;6.28;;;1.40;;
36383;SDS011;22418;51.210;6.976;2023-09-19T14:53:49;3.60;;;1.10;;
36383;SDS011;22418;51.210;6.976;2023-09-19T14:56:19;4.63;;;1.07;;
36383;SDS011;22418;51.210;6.976;2023-09-19T14:58:50;5.23;;;1.30;;
36383;SDS011;22418;51.210;6.976;2023-09-19T15:01:20;5.20;;;1.20;;
36383;SDS011;22418;51.210;6.976;2023-09-19T15:06:24;8.18;;;1.60;;
36383;SDS011;22418;51.210;6.976;2023-09-19T15:08:56;5.65;;;1.30;;
36383;SDS011;22418;51.210;6.976;2023-09-19T15:11:27;9.70;;;2.03;;
36383;SDS011;22418;51.210;6.976;2023-09-19T15:13:58;6.60;;;1.53;;
36383;SDS011;22418;51.210;6.976;2023-09-19T15:16:29;6.88;;;1.10;;
36383;SDS011;22418;51.210;6.976;2023-09-19T15:19:00;4.27;;;1.10;;
36383;SDS011;22418;51.210;6.976;2023-09-19T15:21:30;4.83;;;1.20;;
36383;SDS011;22418;51.210;6.976;2023-09-19T15:24:01;14.17;;;1.43;;
36383;SDS011;22418;51.210;6.976;2023-09-19T15:26:31;8.13;;;1.13;;
36383;SDS011;22418;51.210;6.976;2023-09-19T15:29:02;3.67;;;1.10;;
36383;SDS011;22418;51.210;6.976;2023-09-19T15:31:33;3.20;;;1.08;;
36383;SDS011;22418;51.210;6.976;2023-09-19T15:34:06;4.90;;;0.93;;
36383;SDS011;22418;51.210;6.976;2023-09-19T15:36:37;6.22;;;1.35;;
36383;SDS011;22418;51.210;6.976;2023-09-19T15:41:41;7.30;;;1.13;;
36383;SDS011;22418;51.210;6.976;2023-09-19T15:44:15;5.78;;;1.30;;
36383;SDS011;22418;51.210;6.976;2023-09-19T15:46:47;6.60;;;0.80;;
36383;SDS011;22418;51.210;6.976;2023-09-19T15:49:18;5.07;;;1.20;;
36383;SDS011;22418;51.210;6.976;2023-09-19T15:51:48;2.33;;;1.00;;
36383;SDS011;22418;51.210;6.976;2023-09-19T15:54:19;7.78;;;1.40;;
36383;SDS011;22418;51.210;6.976;2023-09-19T15:56:50;9.43;;;1.43;;
36383;SDS011;22418;51.210;6.976;2023-09-19T15:59:21;6.75;;;1.50;;
36383;SDS011;22418;51.210;6.976;2023-09-19T16:01:52;3.30;;;1.10;;